Terminal Aerodrome Forecast
Issued by NWS

Home | Current Version | Previous Version | Text Only | Print | Product List | Glossary On
Versions: 1 2 3 4 5 6 7 8 9 10 11 12 13
000
FTUS41 KBTV 262320
TAFRUT
TAF
KRUT 262320Z 2700/2724 33006KT P6SM OVC060
     FM270500 VRB03KT P6SM OVC030
     FM271100 VRB03KT P6SM VCSH OVC015
     FM271300 33006KT 5SM -SHRA BR SCT008 OVC025
      AMD LTD TO CLD VIS AND WIND=

USA.gov is the U.S. government's official web portal to all federal, state and local government web resources and services.